Time;durP1;ratioP1;P1;durP2;ratioP2;P2;SDS_P1;SDS_P2;PMS_P1;PMS_P2;Temp;Humidity;BMP_temperature;BMP_pressure;BME280_temperature;BME280_humidity;BME280_pressure;Samples;Min_cycle;Max_cycle;Signal;HPM_P1;HPM_P2
2021/08/08 00:01:34;;;;;;;;;;;24.20;53.00;;;;;;492609;241;2203;-69
2021/08/08 00:03:35;;;;;;;;;;;24.40;52.30;;;;;;492654;241;1104;-70
2021/08/08 00:05:36;;;;;;;;;;;24.60;52.70;;;;;;492684;241;996;-69
2021/08/08 00:07:37;;;;;;;;;;;24.10;52.60;;;;;;492656;241;1085;-70
2021/08/08 00:09:39;;;;;;;;;;;24.80;51.90;;;;;;492733;241;1184;-69
2021/08/08 00:11:40;;;;;;;;;;;24.20;53.00;;;;;;492660;241;1333;-69
2021/08/08 00:13:41;;;;;;;;;;;24.10;52.80;;;;;;492678;241;1060;-70
2021/08/08 00:15:43;;;;;;;;;;;25.10;51.50;;;;;;492736;241;1181;-69
2021/08/08 00:17:44;;;;;;;;;;;24.60;52.20;;;;;;492625;241;1064;-69
2021/08/08 00:19:45;;;;;;;;;;;24.40;52.50;;;;;;492651;241;2140;-70
2021/08/08 00:21:47;;;;;;;;;;;24.60;52.60;;;;;;492636;241;1165;-69
2021/08/08 00:23:48;;;;;;;;;;;24.30;52.50;;;;;;492611;241;961;-69
2021/08/08 00:25:50;;;;;;;;;;;24.60;52.30;;;;;;492635;241;1090;-69
2021/08/08 00:27:51;;;;;;;;;;;24.70;52.20;;;;;;492568;241;1093;-70
2021/08/08 00:29:52;;;;;;;;;;;24.50;52.20;;;;;;492683;241;1161;-70
2021/08/08 00:31:53;;;;;;;;;;;24.90;51.90;;;;;;492595;241;990;-70
2021/08/08 00:33:55;;;;;;;;;;;24.60;52.00;;;;;;492645;241;980;-69
2021/08/08 00:35:56;;;;;;;;;;;24.20;52.90;;;;;;492591;241;1205;-70
2021/08/08 00:37:57;;;;;;;;;;;24.40;52.70;;;;;;492681;241;1219;-69
2021/08/08 00:39:59;;;;;;;;;;;24.60;52.30;;;;;;492641;241;2180;-69
2021/08/08 00:42:00;;;;;;;;;;;24.60;52.20;;;;;;492627;241;1104;-69
2021/08/08 00:44:01;;;;;;;;;;;24.50;52.60;;;;;;492728;241;1079;-69
2021/08/08 00:46:03;;;;;;;;;;;24.40;52.60;;;;;;492629;241;1174;-69
2021/08/08 00:48:04;;;;;;;;;;;24.50;52.40;;;;;;492626;241;1250;-69
2021/08/08 00:50:05;;;;;;;;;;;24.60;52.20;;;;;;492707;241;1017;-70
2021/08/08 00:52:07;;;;;;;;;;;24.30;52.90;;;;;;492581;241;1145;-70
2021/08/08 00:54:08;;;;;;;;;;;24.10;52.70;;;;;;492669;241;1134;-70
2021/08/08 00:56:11;;;;;;;;;;;25.60;50.60;;;;;;492732;241;1117;-70
2021/08/08 00:58:11;;;;;;;;;;;24.50;52.30;;;;;;492552;242;1448;-69
2021/08/08 01:00:12;;;;;;;;;;;24.50;52.40;;;;;;492727;241;2152;-69
2021/08/08 01:02:13;;;;;;;;;;;24.20;52.80;;;;;;492626;241;1182;-70
2021/08/08 01:04:15;;;;;;;;;;;24.00;53.00;;;;;;492615;241;940;-70
2021/08/08 01:06:16;;;;;;;;;;;24.50;52.10;;;;;;492640;241;1213;-69
2021/08/08 01:08:17;;;;;;;;;;;24.20;53.00;;;;;;492695;241;982;-72
2021/08/08 01:10:19;;;;;;;;;;;24.40;52.50;;;;;;492704;241;1046;-69
2021/08/08 01:12:20;;;;;;;;;;;24.90;51.60;;;;;;492605;241;1100;-69
2021/08/08 01:14:21;;;;;;;;;;;24.40;52.00;;;;;;492625;241;963;-70
2021/08/08 01:16:23;;;;;;;;;;;24.60;51.80;;;;;;492607;241;1164;-70
2021/08/08 01:18:24;;;;;;;;;;;24.20;53.10;;;;;;492701;241;989;-69
2021/08/08 01:20:26;;;;;;;;;;;24.50;52.40;;;;;;492681;241;2182;-70
2021/08/08 01:22:27;;;;;;;;;;;24.40;52.30;;;;;;492614;241;1063;-69
2021/08/08 01:24:28;;;;;;;;;;;24.50;52.70;;;;;;492705;241;981;-69
2021/08/08 01:26:30;;;;;;;;;;;24.20;52.70;;;;;;492622;241;1210;-70
2021/08/08 01:28:31;;;;;;;;;;;24.70;51.50;;;;;;492682;241;1390;-69
2021/08/08 01:30:32;;;;;;;;;;;25.30;50.90;;;;;;492700;241;1271;-69
2021/08/08 01:32:34;;;;;;;;;;;24.60;52.10;;;;;;492612;241;1193;-70
2021/08/08 01:34:35;;;;;;;;;;;25.00;51.10;;;;;;492691;241;1047;-70
2021/08/08 01:36:36;;;;;;;;;;;24.90;51.60;;;;;;492611;241;1046;-70
2021/08/08 01:38:38;;;;;;;;;;;24.70;51.90;;;;;;492680;241;996;-69
2021/08/08 01:40:39;;;;;;;;;;;25.10;51.40;;;;;;492634;241;2132;-70
2021/08/08 01:42:40;;;;;;;;;;;24.80;51.50;;;;;;492687;241;1105;-70
2021/08/08 01:44:43;;;;;;;;;;;24.70;52.10;;;;;;492684;241;934;-70
2021/08/08 01:46:44;;;;;;;;;;;25.20;51.10;;;;;;492623;241;1593;-69
2021/08/08 01:48:45;;;;;;;;;;;24.70;52.20;;;;;;492709;241;1140;-69
2021/08/08 01:50:46;;;;;;;;;;;24.70;52.00;;;;;;492685;241;952;-69
2021/08/08 01:52:47;;;;;;;;;;;25.00;51.60;;;;;;492628;241;1060;-70
2021/08/08 01:54:49;;;;;;;;;;;24.70;51.70;;;;;;492670;241;1053;-69
2021/08/08 01:56:51;;;;;;;;;;;24.50;52.20;;;;;;492654;241;1091;-70
2021/08/08 01:58:52;;;;;;;;;;;24.60;52.40;;;;;;492584;241;1488;-70
2021/08/08 02:00:53;;;;;;;;;;;24.50;52.40;;;;;;492629;241;2183;-70
2021/08/08 02:02:55;;;;;;;;;;;24.50;52.20;;;;;;492634;241;1129;-70
2021/08/08 02:04:56;;;;;;;;;;;24.80;51.90;;;;;;492588;241;1037;-69
2021/08/08 02:06:57;;;;;;;;;;;24.70;51.80;;;;;;492583;241;1044;-69
2021/08/08 02:08:59;;;;;;;;;;;24.60;51.80;;;;;;492620;241;966;-69
2021/08/08 02:11:00;;;;;;;;;;;24.40;52.30;;;;;;492626;241;1176;-70
2021/08/08 02:13:01;;;;;;;;;;;24.30;52.30;;;;;;492632;241;1141;-69
2021/08/08 02:15:03;;;;;;;;;;;24.80;51.30;;;;;;492648;241;981;-70
2021/08/08 02:17:04;;;;;;;;;;;24.50;52.10;;;;;;492504;241;1263;-70
2021/08/08 02:19:05;;;;;;;;;;;24.10;52.60;;;;;;492644;241;1088;-70
2021/08/08 02:21:07;;;;;;;;;;;24.50;52.30;;;;;;492612;241;2178;-69
2021/08/08 02:23:08;;;;;;;;;;;24.50;52.60;;;;;;492656;241;1159;-69
2021/08/08 02:25:10;;;;;;;;;;;24.30;52.30;;;;;;492697;241;979;-70
2021/08/08 02:27:11;;;;;;;;;;;24.90;51.60;;;;;;492619;241;1163;-69
2021/08/08 02:29:12;;;;;;;;;;;24.30;52.80;;;;;;492633;241;951;-70
2021/08/08 02:31:13;;;;;;;;;;;24.50;52.50;;;;;;492644;241;1324;-70
2021/08/08 02:33:15;;;;;;;;;;;25.00;51.70;;;;;;492640;241;1167;-69
2021/08/08 02:35:16;;;;;;;;;;;24.60;52.40;;;;;;492692;241;1032;-69
2021/08/08 02:37:18;;;;;;;;;;;24.10;53.10;;;;;;492599;241;1333;-70
2021/08/08 02:39:19;;;;;;;;;;;24.40;52.80;;;;;;492541;241;1194;-69
2021/08/08 02:41:20;;;;;;;;;;;24.20;53.40;;;;;;492537;241;2192;-70
2021/08/08 02:43:22;;;;;;;;;;;24.20;53.10;;;;;;492599;241;1084;-70
2021/08/08 02:45:23;;;;;;;;;;;25.20;51.60;;;;;;492617;241;960;-70
2021/08/08 02:47:26;;;;;;;;;;;25.40;50.40;;;;;;492561;241;1201;-69
2021/08/08 02:49:26;;;;;;;;;;;25.30;50.20;;;;;;492551;241;1329;-69
2021/08/08 02:51:27;;;;;;;;;;;24.50;51.70;;;;;;492594;241;1191;-69
2021/08/08 02:53:28;;;;;;;;;;;24.70;51.80;;;;;;492587;241;1090;-70
2021/08/08 02:55:30;;;;;;;;;;;24.70;52.20;;;;;;492671;241;1105;-70
2021/08/08 02:57:31;;;;;;;;;;;25.40;50.10;;;;;;492653;241;1187;-70
2021/08/08 02:59:33;;;;;;;;;;;24.60;52.00;;;;;;492646;241;978;-69
2021/08/08 03:01:35;;;;;;;;;;;24.30;52.20;;;;;;492633;241;2170;-69
2021/08/08 03:03:36;;;;;;;;;;;24.10;52.80;;;;;;492668;241;1126;-70
2021/08/08 03:05:37;;;;;;;;;;;24.00;53.10;;;;;;492605;241;1232;-70
2021/08/08 03:07:39;;;;;;;;;;;24.30;52.30;;;;;;492663;241;1078;-69
2021/08/08 03:09:40;;;;;;;;;;;24.30;52.80;;;;;;492690;241;1261;-69
2021/08/08 03:11:45;;;;;;;;;;;24.20;52.80;;;;;;492646;241;1038;-69
2021/08/08 03:13:44;;;;;;;;;;;24.40;52.50;;;;;;492472;242;1466;-69
2021/08/08 03:15:45;;;;;;;;;;;24.50;52.30;;;;;;492637;241;1129;-69
2021/08/08 03:17:46;;;;;;;;;;;24.50;52.30;;;;;;492608;241;1209;-69
2021/08/08 03:19:48;;;;;;;;;;;24.80;52.00;;;;;;492717;241;926;-69
2021/08/08 03:21:49;;;;;;;;;;;24.70;52.00;;;;;;492661;241;2191;-69
2021/08/08 03:23:50;;;;;;;;;;;24.20;52.70;;;;;;492650;241;1162;-69
2021/08/08 03:25:52;;;;;;;;;;;24.60;52.40;;;;;;492690;241;1084;-70
2021/08/08 03:27:53;;;;;;;;;;;24.30;52.90;;;;;;492604;241;1119;-70
2021/08/08 03:29:54;;;;;;;;;;;24.40;52.20;;;;;;492670;241;986;-70
2021/08/08 03:31:56;;;;;;;;;;;24.50;52.50;;;;;;492592;241;1127;-70
2021/08/08 03:33:57;;;;;;;;;;;23.90;53.20;;;;;;492688;241;1180;-69
2021/08/08 03:35:58;;;;;;;;;;;24.30;52.60;;;;;;492618;241;1112;-70
2021/08/08 03:38:01;;;;;;;;;;;24.40;52.60;;;;;;492738;241;1125;-69
2021/08/08 03:40:01;;;;;;;;;;;24.10;52.80;;;;;;492547;242;1333;-71
2021/08/08 03:42:02;;;;;;;;;;;24.20;52.80;;;;;;492675;241;2168;-69
2021/08/08 03:44:04;;;;;;;;;;;24.00;53.40;;;;;;492683;241;950;-70
2021/08/08 03:46:05;;;;;;;;;;;24.20;53.20;;;;;;492593;241;1145;-69
2021/08/08 03:48:06;;;;;;;;;;;24.40;52.70;;;;;;492703;241;1126;-70
2021/08/08 03:50:08;;;;;;;;;;;23.90;53.90;;;;;;492661;241;972;-69
2021/08/08 03:52:09;;;;;;;;;;;24.00;53.70;;;;;;492628;241;1203;-70
2021/08/08 03:54:10;;;;;;;;;;;24.20;53.20;;;;;;492661;241;1070;-69
2021/08/08 03:56:12;;;;;;;;;;;23.80;54.00;;;;;;492630;241;979;-69
2021/08/08 03:58:13;;;;;;;;;;;23.80;53.80;;;;;;492690;241;958;-70
2021/08/08 04:00:15;;;;;;;;;;;23.90;53.70;;;;;;492661;241;1179;-70
2021/08/08 04:02:16;;;;;;;;;;;24.20;53.20;;;;;;492577;241;2136;-70
2021/08/08 04:04:18;;;;;;;;;;;23.90;53.20;;;;;;492699;241;1058;-69
2021/08/08 04:06:19;;;;;;;;;;;24.50;53.00;;;;;;492596;241;1115;-70
2021/08/08 04:08:20;;;;;;;;;;;24.70;51.30;;;;;;492714;241;1044;-69
2021/08/08 04:10:22;;;;;;;;;;;24.40;51.70;;;;;;492651;241;1114;-70
2021/08/08 04:12:23;;;;;;;;;;;23.40;54.50;;;;;;492663;241;1097;-69
2021/08/08 04:14:24;;;;;;;;;;;22.70;56.50;;;;;;492681;241;963;-69
2021/08/08 04:16:26;;;;;;;;;;;22.50;57.40;;;;;;492627;241;1202;-70
2021/08/08 04:18:27;;;;;;;;;;;22.20;58.40;;;;;;492637;241;1243;-70
2021/08/08 04:20:28;;;;;;;;;;;22.10;58.80;;;;;;492646;241;946;-70
2021/08/08 04:22:30;;;;;;;;;;;22.00;59.20;;;;;;492622;241;2175;-70
2021/08/08 04:24:31;;;;;;;;;;;21.90;59.50;;;;;;492642;241;1106;-69
2021/08/08 04:26:32;;;;;;;;;;;21.80;59.90;;;;;;492526;241;1211;-69
2021/08/08 04:28:39;;;;;;;;;;;21.70;60.00;;;;;;492683;241;1061;-70
2021/08/08 04:30:36;;;;;;;;;;;21.60;60.30;;;;;;492385;242;1917;-69
2021/08/08 04:32:37;;;;;;;;;;;21.60;60.40;;;;;;492630;241;1151;-69
2021/08/08 04:34:38;;;;;;;;;;;21.60;60.40;;;;;;492654;241;962;-69
2021/08/08 04:36:40;;;;;;;;;;;21.50;60.60;;;;;;492541;241;1233;-69
2021/08/08 04:38:41;;;;;;;;;;;21.50;60.60;;;;;;492736;241;962;-69
2021/08/08 04:40:42;;;;;;;;;;;21.60;60.80;;;;;;492717;241;1106;-70
2021/08/08 04:42:44;;;;;;;;;;;21.50;60.80;;;;;;492592;241;2200;-69
2021/08/08 04:44:45;;;;;;;;;;;21.50;60.80;;;;;;492679;241;992;-69
2021/08/08 04:46:46;;;;;;;;;;;21.50;61.00;;;;;;492561;241;1224;-70
2021/08/08 04:48:48;;;;;;;;;;;21.40;61.10;;;;;;492718;241;1199;-70
2021/08/08 04:50:49;;;;;;;;;;;21.40;61.10;;;;;;492609;242;1203;-70
2021/08/08 04:52:50;;;;;;;;;;;21.40;61.20;;;;;;492625;241;1123;-70
2021/08/08 04:54:52;;;;;;;;;;;21.40;61.30;;;;;;492622;241;1039;-70
2021/08/08 04:56:53;;;;;;;;;;;21.40;61.30;;;;;;492485;241;1228;-70
2021/08/08 04:58:54;;;;;;;;;;;21.40;61.50;;;;;;492650;241;1068;-69
2021/08/08 05:00:56;;;;;;;;;;;21.30;61.50;;;;;;492569;241;1104;-69
2021/08/08 05:02:57;;;;;;;;;;;21.30;61.50;;;;;;492632;241;2180;-69
2021/08/08 05:04:58;;;;;;;;;;;21.40;61.50;;;;;;492708;241;1080;-70
2021/08/08 05:07:00;;;;;;;;;;;21.30;61.50;;;;;;492495;241;1223;-69
2021/08/08 05:09:02;;;;;;;;;;;21.30;61.50;;;;;;492679;241;1012;-70
2021/08/08 05:11:02;;;;;;;;;;;21.30;61.60;;;;;;492524;242;1342;-69
2021/08/08 05:13:04;;;;;;;;;;;21.30;61.60;;;;;;492624;241;1114;-70
2021/08/08 05:15:05;;;;;;;;;;;21.30;61.60;;;;;;492705;241;1052;-70
2021/08/08 05:17:07;;;;;;;;;;;21.20;61.80;;;;;;492572;241;1108;-70
2021/08/08 05:19:08;;;;;;;;;;;21.30;61.70;;;;;;492618;241;1149;-70
2021/08/08 05:21:09;;;;;;;;;;;21.20;61.70;;;;;;492571;238;1312;-70
2021/08/08 05:23:10;;;;;;;;;;;21.20;61.90;;;;;;492696;241;2171;-69
2021/08/08 05:25:12;;;;;;;;;;;21.20;61.80;;;;;;492650;241;939;-70
2021/08/08 05:27:13;;;;;;;;;;;21.20;61.80;;;;;;492587;241;1296;-69
2021/08/08 05:29:15;;;;;;;;;;;21.20;61.80;;;;;;492689;241;1086;-70
2021/08/08 05:31:16;;;;;;;;;;;21.20;61.90;;;;;;492608;241;1220;-70
2021/08/08 05:33:17;;;;;;;;;;;21.20;62.00;;;;;;492729;241;1180;-70
2021/08/08 05:35:18;;;;;;;;;;;21.20;62.10;;;;;;492705;241;1217;-69
2021/08/08 05:37:21;;;;;;;;;;;21.20;62.20;;;;;;492627;241;1162;-69
2021/08/08 05:39:21;;;;;;;;;;;21.20;62.20;;;;;;492649;242;1652;-70
2021/08/08 05:41:22;;;;;;;;;;;21.10;62.20;;;;;;492557;241;1124;-70
2021/08/08 05:43:24;;;;;;;;;;;21.20;62.20;;;;;;492594;241;2163;-70
2021/08/08 05:45:25;;;;;;;;;;;21.10;62.20;;;;;;492652;241;1001;-70
2021/08/08 05:47:27;;;;;;;;;;;21.20;62.20;;;;;;492589;241;1115;-69
2021/08/08 05:49:28;;;;;;;;;;;21.20;62.30;;;;;;492646;241;1200;-69
2021/08/08 05:51:30;;;;;;;;;;;21.20;62.40;;;;;;492639;241;1132;-70
2021/08/08 05:53:31;;;;;;;;;;;21.20;62.30;;;;;;492637;241;1406;-69
2021/08/08 05:55:32;;;;;;;;;;;21.20;62.40;;;;;;492623;241;1048;-69
2021/08/08 05:57:33;;;;;;;;;;;21.10;62.50;;;;;;492558;241;1082;-69
2021/08/08 05:59:35;;;;;;;;;;;21.10;62.40;;;;;;492623;241;1072;-69
2021/08/08 06:01:36;;;;;;;;;;;21.20;62.50;;;;;;492532;241;2136;-69
2021/08/08 06:03:37;;;;;;;;;;;21.10;62.50;;;;;;492614;241;1208;-69
2021/08/08 06:05:39;;;;;;;;;;;21.20;62.40;;;;;;492565;241;1202;-70
2021/08/08 06:07:42;;;;;;;;;;;21.20;62.40;;;;;;492495;241;959;-69
2021/08/08 06:09:43;;;;;;;;;;;21.20;62.40;;;;;;492606;241;946;-69
2021/08/08 06:11:44;;;;;;;;;;;21.10;62.60;;;;;;492532;241;1198;-70
2021/08/08 06:13:46;;;;;;;;;;;21.20;62.40;;;;;;492720;241;1130;-70
2021/08/08 06:15:47;;;;;;;;;;;21.10;62.40;;;;;;492704;241;1215;-69
2021/08/08 06:17:49;;;;;;;;;;;21.20;62.40;;;;;;492617;241;964;-70
2021/08/08 06:19:50;;;;;;;;;;;21.20;62.30;;;;;;492688;241;1180;-69
2021/08/08 06:21:51;;;;;;;;;;;21.20;62.40;;;;;;492631;241;2187;-69
2021/08/08 06:23:52;;;;;;;;;;;21.20;62.40;;;;;;492664;241;1054;-70
2021/08/08 06:25:54;;;;;;;;;;;21.20;62.60;;;;;;492663;241;1265;-70
2021/08/08 06:27:55;;;;;;;;;;;21.10;62.50;;;;;;492611;241;1112;-69
2021/08/08 06:29:56;;;;;;;;;;;21.10;62.60;;;;;;492692;241;1121;-70
2021/08/08 06:31:58;;;;;;;;;;;21.10;62.70;;;;;;492525;241;1385;-70
2021/08/08 06:33:59;;;;;;;;;;;21.20;62.70;;;;;;492707;241;1187;-70
2021/08/08 06:36:00;;;;;;;;;;;21.10;62.70;;;;;;492611;241;1177;-70
2021/08/08 06:38:02;;;;;;;;;;;21.10;62.60;;;;;;492627;241;1053;-69
2021/08/08 06:40:03;;;;;;;;;;;21.10;62.50;;;;;;492659;241;993;-70
2021/08/08 06:42:04;;;;;;;;;;;21.10;62.60;;;;;;492584;241;2175;-69
2021/08/08 06:44:06;;;;;;;;;;;21.10;62.60;;;;;;492578;241;999;-69
2021/08/08 06:46:07;;;;;;;;;;;21.10;62.60;;;;;;492590;241;1152;-69
2021/08/08 06:48:08;;;;;;;;;;;21.00;62.70;;;;;;492622;241;1029;-69
2021/08/08 06:50:10;;;;;;;;;;;21.00;62.80;;;;;;492666;241;1126;-70
2021/08/08 06:52:11;;;;;;;;;;;21.10;62.80;;;;;;492520;241;1207;-70
2021/08/08 06:54:12;;;;;;;;;;;21.10;62.80;;;;;;492663;241;1017;-70
2021/08/08 06:56:14;;;;;;;;;;;20.90;63.00;;;;;;492653;241;982;-70
2021/08/08 06:58:15;;;;;;;;;;;20.90;63.30;;;;;;492659;241;944;-69
2021/08/08 07:00:16;;;;;;;;;;;20.90;63.50;;;;;;492684;241;960;-69
2021/08/08 07:02:18;;;;;;;;;;;20.90;63.60;;;;;;492654;241;2179;-70
2021/08/08 07:04:19;;;;;;;;;;;20.80;63.60;;;;;;492724;241;1170;-69
2021/08/08 07:06:20;;;;;;;;;;;20.80;63.70;;;;;;492661;241;1068;-69
2021/08/08 07:08:22;;;;;;;;;;;20.80;63.70;;;;;;492594;241;1045;-70
2021/08/08 07:10:23;;;;;;;;;;;20.70;63.90;;;;;;492693;241;1127;-69
2021/08/08 07:12:25;;;;;;;;;;;20.70;64.10;;;;;;492592;241;1138;-69
2021/08/08 07:14:27;;;;;;;;;;;20.70;64.10;;;;;;492645;241;984;-69
2021/08/08 07:16:27;;;;;;;;;;;20.70;64.10;;;;;;492514;241;1438;-70
2021/08/08 07:18:29;;;;;;;;;;;20.70;64.10;;;;;;492602;241;996;-70
2021/08/08 07:20:30;;;;;;;;;;;20.60;64.10;;;;;;492556;241;1184;-69
2021/08/08 07:22:31;;;;;;;;;;;20.70;64.30;;;;;;492558;241;2171;-70
2021/08/08 07:24:33;;;;;;;;;;;20.70;64.30;;;;;;492590;241;1012;-69
2021/08/08 07:26:34;;;;;;;;;;;20.70;64.20;;;;;;492595;241;1211;-69
2021/08/08 07:28:35;;;;;;;;;;;20.70;64.10;;;;;;492673;241;1121;-69
2021/08/08 07:30:37;;;;;;;;;;;20.70;64.10;;;;;;492654;241;1117;-69
2021/08/08 07:32:38;;;;;;;;;;;20.70;64.10;;;;;;492543;241;1184;-69
2021/08/08 07:34:39;;;;;;;;;;;20.70;64.10;;;;;;492621;241;1322;-69
2021/08/08 07:36:41;;;;;;;;;;;20.70;64.10;;;;;;492565;241;1329;-70
2021/08/08 07:38:42;;;;;;;;;;;20.70;64.10;;;;;;492604;241;1140;-69
2021/08/08 07:40:43;;;;;;;;;;;20.70;64.20;;;;;;492695;241;936;-69
2021/08/08 07:42:45;;;;;;;;;;;20.70;64.10;;;;;;492612;241;2191;-69
2021/08/08 07:44:46;;;;;;;;;;;20.70;64.10;;;;;;492621;241;966;-69
2021/08/08 07:46:47;;;;;;;;;;;20.70;64.20;;;;;;492583;241;1215;-69
2021/08/08 07:48:50;;;;;;;;;;;20.70;64.30;;;;;;492672;241;1033;-69
2021/08/08 07:50:50;;;;;;;;;;;20.70;64.20;;;;;;492465;242;1551;-69
2021/08/08 07:52:51;;;;;;;;;;;20.60;64.20;;;;;;492605;241;1049;-70
2021/08/08 07:54:53;;;;;;;;;;;20.70;64.20;;;;;;492657;241;980;-70
2021/08/08 07:56:54;;;;;;;;;;;20.60;64.20;;;;;;492499;241;1237;-69
2021/08/08 07:58:55;;;;;;;;;;;20.60;64.20;;;;;;492581;241;1103;-69
2021/08/08 08:00:57;;;;;;;;;;;20.70;64.10;;;;;;492595;241;1256;-69
2021/08/08 08:02:58;;;;;;;;;;;20.60;64.10;;;;;;492631;241;2149;-69
2021/08/08 08:04:59;;;;;;;;;;;20.60;64.20;;;;;;492636;241;1148;-69
2021/08/08 08:07:01;;;;;;;;;;;20.60;64.10;;;;;;492620;241;1198;-69
2021/08/08 08:09:02;;;;;;;;;;;20.60;64.20;;;;;;492617;241;1045;-69
2021/08/08 08:11:03;;;;;;;;;;;20.60;64.30;;;;;;492626;241;1155;-70
2021/08/08 08:13:05;;;;;;;;;;;20.60;64.20;;;;;;492676;241;1103;-70
2021/08/08 08:15:06;;;;;;;;;;;20.60;64.20;;;;;;492572;241;969;-70
2021/08/08 08:17:07;;;;;;;;;;;20.60;64.20;;;;;;492555;241;1060;-70
2021/08/08 08:19:09;;;;;;;;;;;20.60;64.20;;;;;;492681;241;1031;-69
2021/08/08 08:21:10;;;;;;;;;;;20.60;64.20;;;;;;492612;238;1295;-69
2021/08/08 08:23:11;;;;;;;;;;;20.60;64.30;;;;;;492655;241;2188;-69
2021/08/08 08:25:13;;;;;;;;;;;20.60;64.20;;;;;;492704;241;1050;-70
2021/08/08 08:27:14;;;;;;;;;;;20.60;64.20;;;;;;492614;241;1135;-69
2021/08/08 08:29:16;;;;;;;;;;;20.60;64.10;;;;;;492696;241;965;-69
2021/08/08 08:31:17;;;;;;;;;;;20.60;64.20;;;;;;492649;241;1209;-69
2021/08/08 08:33:18;;;;;;;;;;;20.70;64.10;;;;;;492669;241;1048;-70
2021/08/08 08:35:20;;;;;;;;;;;20.60;64.20;;;;;;492589;241;1624;-70
2021/08/08 08:37:21;;;;;;;;;;;20.60;64.20;;;;;;492595;241;1322;-69
2021/08/08 08:39:22;;;;;;;;;;;20.60;64.20;;;;;;492685;241;1095;-69
2021/08/08 08:41:23;;;;;;;;;;;20.60;64.10;;;;;;492686;238;1288;-69
2021/08/08 08:43:25;;;;;;;;;;;20.60;64.20;;;;;;492698;241;2179;-70
2021/08/08 08:45:26;;;;;;;;;;;20.60;64.20;;;;;;492574;241;1009;-69
2021/08/08 08:47:28;;;;;;;;;;;20.60;64.20;;;;;;492491;241;1156;-69
2021/08/08 08:49:29;;;;;;;;;;;20.60;64.20;;;;;;492660;241;955;-70
2021/08/08 08:51:30;;;;;;;;;;;20.70;64.20;;;;;;492557;241;1351;-70
2021/08/08 08:53:32;;;;;;;;;;;20.60;64.20;;;;;;492639;241;1143;-69
2021/08/08 08:55:33;;;;;;;;;;;20.60;64.20;;;;;;492578;241;1222;-70
2021/08/08 08:57:34;;;;;;;;;;;20.60;64.20;;;;;;492509;241;1142;-70
2021/08/08 08:59:36;;;;;;;;;;;20.60;64.30;;;;;;492638;241;1042;-69
2021/08/08 09:01:39;;;;;;;;;;;20.60;64.30;;;;;;492668;241;1208;-69
2021/08/08 09:03:40;;;;;;;;;;;20.50;64.30;;;;;;492549;241;2180;-69
2021/08/08 09:05:40;;;;;;;;;;;20.60;64.40;;;;;;492435;242;1587;-69
2021/08/08 09:07:41;;;;;;;;;;;20.60;64.30;;;;;;492599;241;1114;-69
2021/08/08 09:09:42;;;;;;;;;;;20.60;64.30;;;;;;492592;241;1346;-69
2021/08/08 09:11:44;;;;;;;;;;;20.60;64.30;;;;;;492600;241;1109;-69
2021/08/08 09:13:45;;;;;;;;;;;20.50;64.30;;;;;;492687;241;1132;-70
2021/08/08 09:15:47;;;;;;;;;;;20.60;64.20;;;;;;492610;241;1101;-70
2021/08/08 09:17:48;;;;;;;;;;;20.60;64.20;;;;;;492651;241;1068;-70
2021/08/08 09:19:50;;;;;;;;;;;20.60;64.20;;;;;;492644;241;1045;-69
2021/08/08 09:21:51;;;;;;;;;;;20.50;64.30;;;;;;492659;241;1258;-69
2021/08/08 09:23:52;;;;;;;;;;;20.60;64.40;;;;;;492623;241;2144;-69
2021/08/08 09:25:53;;;;;;;;;;;20.60;64.40;;;;;;492606;241;1206;-69
2021/08/08 09:27:55;;;;;;;;;;;20.50;64.40;;;;;;492691;241;1000;-69
2021/08/08 09:29:56;;;;;;;;;;;20.50;64.40;;;;;;492672;241;1091;-70
2021/08/08 09:31:59;;;;;;;;;;;20.50;64.50;;;;;;492678;241;1221;-69
2021/08/08 09:33:59;;;;;;;;;;;20.60;64.60;;;;;;492581;241;1474;-70
2021/08/08 09:36:00;;;;;;;;;;;20.60;64.50;;;;;;492543;241;1202;-69
2021/08/08 09:38:01;;;;;;;;;;;20.50;64.50;;;;;;492642;241;1099;-69
2021/08/08 09:40:03;;;;;;;;;;;20.50;64.60;;;;;;492625;241;1121;-69
2021/08/08 09:42:04;;;;;;;;;;;20.50;64.60;;;;;;492577;241;1164;-69
2021/08/08 09:44:05;;;;;;;;;;;20.50;64.70;;;;;;492684;241;2187;-70
2021/08/08 09:46:07;;;;;;;;;;;20.50;64.50;;;;;;492525;241;1274;-70
2021/08/08 09:48:11;;;;;;;;;;;20.50;64.60;;;;;;492626;241;1195;-69
2021/08/08 09:50:09;;;;;;;;;;;20.50;64.60;;;;;;492420;242;1429;-69
2021/08/08 09:52:11;;;;;;;;;;;20.50;64.70;;;;;;492567;241;1218;-70
2021/08/08 09:54:12;;;;;;;;;;;20.50;64.60;;;;;;492646;241;957;-70
2021/08/08 09:56:13;;;;;;;;;;;20.60;64.60;;;;;;492577;238;1186;-70
2021/08/08 09:58:16;;;;;;;;;;;20.60;64.60;;;;;;492667;241;1072;-69
2021/08/08 10:00:16;;;;;;;;;;;20.60;64.60;;;;;;492548;241;1115;-70
2021/08/08 10:02:18;;;;;;;;;;;20.50;64.60;;;;;;492661;241;1100;-69
2021/08/08 10:04:19;;;;;;;;;;;20.50;64.70;;;;;;492616;241;2196;-70
2021/08/08 10:06:20;;;;;;;;;;;20.50;64.70;;;;;;492571;241;1205;-69
2021/08/08 10:08:22;;;;;;;;;;;20.50;64.60;;;;;;492659;241;940;-69
2021/08/08 10:10:23;;;;;;;;;;;20.50;64.60;;;;;;492637;241;955;-69
2021/08/08 10:12:24;;;;;;;;;;;20.60;64.60;;;;;;492470;241;1109;-70
2021/08/08 10:14:26;;;;;;;;;;;20.60;64.50;;;;;;492654;241;992;-69
2021/08/08 10:16:31;;;;;;;;;;;20.60;64.50;;;;;;492493;241;1216;-69
2021/08/08 10:18:28;;;;;;;;;;;20.60;64.50;;;;;;492388;242;1519;-70
2021/08/08 10:20:30;;;;;;;;;;;20.60;64.50;;;;;;492546;241;1225;-70
2021/08/08 10:22:31;;;;;;;;;;;20.50;64.40;;;;;;492442;241;1204;-69
2021/08/08 10:24:32;;;;;;;;;;;20.60;64.40;;;;;;492619;241;2177;-70
2021/08/08 10:26:34;;;;;;;;;;;20.60;64.40;;;;;;492463;241;1228;-69
2021/08/08 10:28:35;;;;;;;;;;;20.60;64.40;;;;;;492623;241;964;-69
2021/08/08 10:30:37;;;;;;;;;;;20.50;64.50;;;;;;492613;241;997;-70
2021/08/08 10:32:38;;;;;;;;;;;20.60;64.40;;;;;;492526;241;1115;-70
2021/08/08 10:34:40;;;;;;;;;;;20.50;64.40;;;;;;492720;241;1282;-69
2021/08/08 10:36:41;;;;;;;;;;;20.50;64.40;;;;;;492544;238;1286;-69
2021/08/08 10:38:42;;;;;;;;;;;20.50;64.40;;;;;;492618;241;957;-69
2021/08/08 10:40:44;;;;;;;;;;;20.60;64.40;;;;;;492594;241;1305;-69
2021/08/08 10:42:45;;;;;;;;;;;20.50;64.40;;;;;;492554;241;1198;-69
2021/08/08 10:44:47;;;;;;;;;;;20.50;64.40;;;;;;492653;241;2179;-70
2021/08/08 10:46:48;;;;;;;;;;;20.50;64.40;;;;;;492477;238;1207;-69
2021/08/08 10:48:49;;;;;;;;;;;20.50;64.40;;;;;;492596;241;1067;-70
2021/08/08 10:50:51;;;;;;;;;;;20.50;64.40;;;;;;492545;241;1214;-70
2021/08/08 10:52:54;;;;;;;;;;;20.60;64.40;;;;;;492514;241;1121;-70
2021/08/08 10:54:54;;;;;;;;;;;20.60;64.30;;;;;;492516;241;1455;-69
2021/08/08 10:56:55;;;;;;;;;;;20.60;64.30;;;;;;492562;241;1178;-69
2021/08/08 10:58:56;;;;;;;;;;;20.60;64.30;;;;;;492604;241;1010;-69
2021/08/08 11:00:58;;;;;;;;;;;20.60;64.40;;;;;;492543;241;1003;-70
2021/08/08 11:02:59;;;;;;;;;;;20.60;64.40;;;;;;492653;241;1090;-70
2021/08/08 11:05:00;;;;;;;;;;;20.60;64.50;;;;;;492590;241;2174;-69
2021/08/08 11:07:02;;;;;;;;;;;20.60;64.40;;;;;;492522;241;1228;-70
2021/08/08 11:09:03;;;;;;;;;;;20.60;64.40;;;;;;492505;241;1047;-70
2021/08/08 11:11:05;;;;;;;;;;;20.60;64.50;;;;;;492526;241;1053;-70
2021/08/08 11:13:06;;;;;;;;;;;20.60;64.50;;;;;;492480;241;1149;-69
2021/08/08 11:15:07;;;;;;;;;;;20.60;64.40;;;;;;492702;241;1217;-69
2021/08/08 11:17:09;;;;;;;;;;;20.60;64.40;;;;;;492585;241;1162;-69
2021/08/08 11:19:10;;;;;;;;;;;20.60;64.40;;;;;;492687;241;1016;-69
2021/08/08 11:21:12;;;;;;;;;;;20.60;64.40;;;;;;492604;241;1012;-69
2021/08/08 11:23:13;;;;;;;;;;;20.50;64.40;;;;;;492570;241;1254;-70
2021/08/08 11:25:14;;;;;;;;;;;20.60;64.40;;;;;;492591;241;2120;-70
2021/08/08 11:27:16;;;;;;;;;;;20.60;64.30;;;;;;492457;241;1180;-70
2021/08/08 11:29:17;;;;;;;;;;;20.60;64.30;;;;;;492671;241;1064;-70
2021/08/08 11:31:19;;;;;;;;;;;20.60;64.20;;;;;;492509;241;1214;-70
2021/08/08 11:33:20;;;;;;;;;;;20.60;64.10;;;;;;492607;241;1186;-69
2021/08/08 11:35:24;;;;;;;;;;;20.60;64.10;;;;;;492546;241;1117;-70
2021/08/08 11:37:23;;;;;;;;;;;20.60;64.20;;;;;;492246;242;1391;-70
2021/08/08 11:39:24;;;;;;;;;;;20.60;64.10;;;;;;492642;241;1010;-70
2021/08/08 11:41:25;;;;;;;;;;;20.60;63.90;;;;;;492643;241;1138;-70
2021/08/08 11:43:27;;;;;;;;;;;20.70;63.70;;;;;;492656;241;2196;-70
2021/08/08 11:45:28;;;;;;;;;;;20.60;63.70;;;;;;492698;241;941;-70
2021/08/08 11:47:29;;;;;;;;;;;20.60;63.70;;;;;;492583;241;1205;-70
2021/08/08 11:49:31;;;;;;;;;;;20.60;63.60;;;;;;492597;241;1117;-70
2021/08/08 11:51:32;;;;;;;;;;;20.60;63.50;;;;;;492583;241;1293;-69
2021/08/08 11:53:34;;;;;;;;;;;20.60;63.40;;;;;;492650;241;1185;-70
2021/08/08 11:55:35;;;;;;;;;;;20.60;63.50;;;;;;492595;241;964;-70
2021/08/08 11:57:36;;;;;;;;;;;20.50;63.50;;;;;;492518;241;1198;-70